sensor_id;sensor_type;location;lat;lon;timestamp;temperature;humidity
25320;DHT22;13256;49.012;8.610;2023-02-26T00:00:09;1.60;99.90
25320;DHT22;13256;49.012;8.610;2023-02-26T00:02:41;1.60;99.90
25320;DHT22;13256;49.012;8.610;2023-02-26T00:05:08;1.50;99.90
25320;DHT22;13256;49.012;8.610;2023-02-26T00:07:40;1.50;99.90
25320;DHT22;13256;49.012;8.610;2023-02-26T00:10:36;1.50;99.90
25320;DHT22;13256;49.012;8.610;2023-02-26T00:13:02;1.40;99.90
25320;DHT22;13256;49.012;8.610;2023-02-26T00:15:30;1.40;99.90
25320;DHT22;13256;49.012;8.610;2023-02-26T00:18:08;1.40;99.90
25320;DHT22;13256;49.012;8.610;2023-02-26T00:20:47;1.40;99.90
25320;DHT22;13256;49.012;8.610;2023-02-26T00:23:15;1.40;99.90
25320;DHT22;13256;49.012;8.610;2023-02-26T00:25:42;1.40;99.90
25320;DHT22;13256;49.012;8.610;2023-02-26T00:28:12;1.40;99.90
25320;DHT22;13256;49.012;8.610;2023-02-26T00:30:41;1.30;99.90
25320;DHT22;13256;49.012;8.610;2023-02-26T00:33:08;1.30;99.90
25320;DHT22;13256;49.012;8.610;2023-02-26T00:35:35;1.30;99.90
25320;DHT22;13256;49.012;8.610;2023-02-26T00:38:14;1.30;99.90
25320;DHT22;13256;49.012;8.610;2023-02-26T00:41:07;1.20;99.90
25320;DHT22;13256;49.012;8.610;2023-02-26T00:43:38;1.20;99.90
25320;DHT22;13256;49.012;8.610;2023-02-26T00:46:13;1.10;99.90
25320;DHT22;13256;49.012;8.610;2023-02-26T00:52:01;1.00;99.90
25320;DHT22;13256;49.012;8.610;2023-02-26T00:54:32;1.00;99.90
25320;DHT22;13256;49.012;8.610;2023-02-26T00:56:59;0.90;99.90
25320;DHT22;13256;49.012;8.610;2023-02-26T00:59:26;0.90;99.90
25320;DHT22;13256;49.012;8.610;2023-02-26T01:01:53;0.80;99.90
25320;DHT22;13256;49.012;8.610;2023-02-26T01:04:22;0.90;99.90
25320;DHT22;13256;49.012;8.610;2023-02-26T01:06:52;0.80;99.90
25320;DHT22;13256;49.012;8.610;2023-02-26T01:09:32;0.70;99.90
25320;DHT22;13256;49.012;8.610;2023-02-26T01:12:09;0.60;99.90
25320;DHT22;13256;49.012;8.610;2023-02-26T01:15:03;0.50;99.90
25320;DHT22;13256;49.012;8.610;2023-02-26T01:17:35;0.50;99.90
25320;DHT22;13256;49.012;8.610;2023-02-26T01:22:54;0.30;99.90
25320;DHT22;13256;49.012;8.610;2023-02-26T01:25:49;0.20;99.90
25320;DHT22;13256;49.012;8.610;2023-02-26T01:28:17;0.00;99.90
25320;DHT22;13256;49.012;8.610;2023-02-26T01:33:56;-0.30;99.90
25320;DHT22;13256;49.012;8.610;2023-02-26T01:36:32;-0.40;99.90
25320;DHT22;13256;49.012;8.610;2023-02-26T01:47:37;-0.60;99.90
25320;DHT22;13256;49.012;8.610;2023-02-26T01:50:14;-0.70;99.90
25320;DHT22;13256;49.012;8.610;2023-02-26T01:55:20;-0.90;99.90
25320;DHT22;13256;49.012;8.610;2023-02-26T01:57:52;-0.90;99.90
25320;DHT22;13256;49.012;8.610;2023-02-26T02:00:23;-0.90;99.90
25320;DHT22;13256;49.012;8.610;2023-02-26T02:02:55;-0.90;99.90
25320;DHT22;13256;49.012;8.610;2023-02-26T02:05:51;-0.90;99.90
25320;DHT22;13256;49.012;8.610;2023-02-26T02:08:20;-0.90;99.90
25320;DHT22;13256;49.012;8.610;2023-02-26T02:10:50;-0.90;99.90
25320;DHT22;13256;49.012;8.610;2023-02-26T02:27:49;-0.70;99.90
25320;DHT22;13256;49.012;8.610;2023-02-26T02:32:59;-0.60;99.90
25320;DHT22;13256;49.012;8.610;2023-02-26T02:35:33;-0.60;99.90
25320;DHT22;13256;49.012;8.610;2023-02-26T02:38:16;-0.60;99.90
25320;DHT22;13256;49.012;8.610;2023-02-26T02:41:00;-0.60;99.90
25320;DHT22;13256;49.012;8.610;2023-02-26T02:43:32;-0.60;99.90
25320;DHT22;13256;49.012;8.610;2023-02-26T02:46:05;-0.70;99.90
25320;DHT22;13256;49.012;8.610;2023-02-26T02:48:38;-0.80;99.90
25320;DHT22;13256;49.012;8.610;2023-02-26T02:51:15;-0.90;99.90
25320;DHT22;13256;49.012;8.610;2023-02-26T02:54:09;-0.90;99.90
25320;DHT22;13256;49.012;8.610;2023-02-26T02:56:46;-0.90;99.90
25320;DHT22;13256;49.012;8.610;2023-02-26T03:05:10;-1.00;99.90
25320;DHT22;13256;49.012;8.610;2023-02-26T03:07:59;-1.10;99.90
25320;DHT22;13256;49.012;8.610;2023-02-26T03:10:30;-1.10;99.90
25320;DHT22;13256;49.012;8.610;2023-02-26T03:12:58;-1.20;99.90
25320;DHT22;13256;49.012;8.610;2023-02-26T03:18:49;-1.10;99.90
25320;DHT22;13256;49.012;8.610;2023-02-26T03:21:23;-1.20;99.90
25320;DHT22;13256;49.012;8.610;2023-02-26T03:27:12;-1.40;99.90
25320;DHT22;13256;49.012;8.610;2023-02-26T03:35:55;-1.60;99.90
25320;DHT22;13256;49.012;8.610;2023-02-26T03:38:41;-1.60;99.90
25320;DHT22;13256;49.012;8.610;2023-02-26T03:44:36;-1.70;99.90
25320;DHT22;13256;49.012;8.610;2023-02-26T03:47:09;-1.70;99.90
25320;DHT22;13256;49.012;8.610;2023-02-26T03:52:13;-1.70;99.90
25320;DHT22;13256;49.012;8.610;2023-02-26T03:56:16;-1.70;99.90
25320;DHT22;13256;49.012;8.610;2023-02-26T03:58:31;-1.70;99.90
25320;DHT22;13256;49.012;8.610;2023-02-26T04:01:30;-1.80;99.90
25320;DHT22;13256;49.012;8.610;2023-02-26T04:04:09;-1.90;99.90
25320;DHT22;13256;49.012;8.610;2023-02-26T04:09:51;-2.00;99.90
25320;DHT22;13256;49.012;8.610;2023-02-26T04:12:27;-2.10;99.90
25320;DHT22;13256;49.012;8.610;2023-02-26T04:14:55;-2.10;99.90
25320;DHT22;13256;49.012;8.610;2023-02-26T04:17:24;-2.20;99.90
25320;DHT22;13256;49.012;8.610;2023-02-26T04:19:51;-2.20;99.90
25320;DHT22;13256;49.012;8.610;2023-02-26T04:22:19;-2.20;99.90
25320;DHT22;13256;49.012;8.610;2023-02-26T04:24:50;-2.20;99.90
25320;DHT22;13256;49.012;8.610;2023-02-26T04:27:18;-2.30;99.90
25320;DHT22;13256;49.012;8.610;2023-02-26T04:29:45;-2.40;99.90
25320;DHT22;13256;49.012;8.610;2023-02-26T04:32:15;-2.40;99.90
25320;DHT22;13256;49.012;8.610;2023-02-26T04:34:42;-2.40;99.90
25320;DHT22;13256;49.012;8.610;2023-02-26T04:37:12;-2.40;99.90
25320;DHT22;13256;49.012;8.610;2023-02-26T04:39:38;-2.40;99.90
25320;DHT22;13256;49.012;8.610;2023-02-26T04:42:10;-2.40;99.90
25320;DHT22;13256;49.012;8.610;2023-02-26T04:45:05;-2.40;99.90
25320;DHT22;13256;49.012;8.610;2023-02-26T04:47:59;-2.50;99.90
25320;DHT22;13256;49.012;8.610;2023-02-26T04:50:27;-2.50;99.90
25320;DHT22;13256;49.012;8.610;2023-02-26T04:52:53;-2.50;99.90
25320;DHT22;13256;49.012;8.610;2023-02-26T04:55:24;-2.50;99.90
25320;DHT22;13256;49.012;8.610;2023-02-26T04:58:03;-2.40;99.90
25320;DHT22;13256;49.012;8.610;2023-02-26T05:00:37;-2.50;99.90
25320;DHT22;13256;49.012;8.610;2023-02-26T05:03:06;-2.40;99.90
25320;DHT22;13256;49.012;8.610;2023-02-26T05:05:37;-2.40;99.90
25320;DHT22;13256;49.012;8.610;2023-02-26T05:08:05;-2.50;99.90
25320;DHT22;13256;49.012;8.610;2023-02-26T05:10:34;-2.50;99.90
25320;DHT22;13256;49.012;8.610;2023-02-26T05:13:06;-2.50;99.90
25320;DHT22;13256;49.012;8.610;2023-02-26T05:15:35;-2.50;99.90
25320;DHT22;13256;49.012;8.610;2023-02-26T05:18:02;-2.50;99.90
25320;DHT22;13256;49.012;8.610;2023-02-26T05:20:35;-2.50;99.90
25320;DHT22;13256;49.012;8.610;2023-02-26T05:23:03;-2.60;99.90
25320;DHT22;13256;49.012;8.610;2023-02-26T05:25:30;-2.70;99.90
25320;DHT22;13256;49.012;8.610;2023-02-26T05:28:00;-2.70;99.90
25320;DHT22;13256;49.012;8.610;2023-02-26T05:30:28;-2.70;99.90
25320;DHT22;13256;49.012;8.610;2023-02-26T05:33:01;-2.80;99.90
25320;DHT22;13256;49.012;8.610;2023-02-26T05:35:30;-2.80;99.90
25320;DHT22;13256;49.012;8.610;2023-02-26T05:37:59;-2.80;99.90
25320;DHT22;13256;49.012;8.610;2023-02-26T05:40:28;-2.90;99.90
25320;DHT22;13256;49.012;8.610;2023-02-26T05:42:58;-2.90;99.90
25320;DHT22;13256;49.012;8.610;2023-02-26T05:45:26;-3.00;99.90
25320;DHT22;13256;49.012;8.610;2023-02-26T05:47:56;-3.00;99.90
25320;DHT22;13256;49.012;8.610;2023-02-26T05:50:46;-3.00;99.90
25320;DHT22;13256;49.012;8.610;2023-02-26T05:53:18;-3.10;99.90
25320;DHT22;13256;49.012;8.610;2023-02-26T05:55:47;-3.10;99.90
25320;DHT22;13256;49.012;8.610;2023-02-26T05:58:17;-3.10;99.90
25320;DHT22;13256;49.012;8.610;2023-02-26T06:00:46;-3.10;99.90
25320;DHT22;13256;49.012;8.610;2023-02-26T06:03:18;-3.10;99.90
25320;DHT22;13256;49.012;8.610;2023-02-26T06:05:46;-3.10;99.90
25320;DHT22;13256;49.012;8.610;2023-02-26T06:11:40;-3.20;99.90
25320;DHT22;13256;49.012;8.610;2023-02-26T06:14:12;-3.30;99.90
25320;DHT22;13256;49.012;8.610;2023-02-26T06:16:41;-3.30;99.90
25320;DHT22;13256;49.012;8.610;2023-02-26T06:19:11;-3.20;99.90
25320;DHT22;13256;49.012;8.610;2023-02-26T06:21:38;-3.20;99.90
25320;DHT22;13256;49.012;8.610;2023-02-26T06:24:05;-3.10;99.90
25320;DHT22;13256;49.012;8.610;2023-02-26T06:30:04;-3.00;99.90
25320;DHT22;13256;49.012;8.610;2023-02-26T06:32:34;-3.00;99.90
25320;DHT22;13256;49.012;8.610;2023-02-26T06:35:01;-3.00;99.90
25320;DHT22;13256;49.012;8.610;2023-02-26T06:37:29;-3.10;99.90
25320;DHT22;13256;49.012;8.610;2023-02-26T06:40:00;-3.00;99.90
25320;DHT22;13256;49.012;8.610;2023-02-26T06:42:41;-3.00;99.90
25320;DHT22;13256;49.012;8.610;2023-02-26T06:45:08;-3.00;99.90
25320;DHT22;13256;49.012;8.610;2023-02-26T06:47:39;-2.90;99.90
25320;DHT22;13256;49.012;8.610;2023-02-26T06:50:44;-2.90;99.90
25320;DHT22;13256;49.012;8.610;2023-02-26T06:53:10;-2.90;99.90
25320;DHT22;13256;49.012;8.610;2023-02-26T06:55:43;-2.90;99.90
25320;DHT22;13256;49.012;8.610;2023-02-26T06:58:14;-2.90;99.90
25320;DHT22;13256;49.012;8.610;2023-02-26T07:00:42;-2.90;99.90
25320;DHT22;13256;49.012;8.610;2023-02-26T07:03:37;-3.00;99.90
25320;DHT22;13256;49.012;8.610;2023-02-26T07:06:08;-3.00;99.90
25320;DHT22;13256;49.012;8.610;2023-02-26T07:08:54;-2.90;99.90
25320;DHT22;13256;49.012;8.610;2023-02-26T07:11:24;-2.80;99.90
25320;DHT22;13256;49.012;8.610;2023-02-26T07:13:54;-2.70;99.90
25320;DHT22;13256;49.012;8.610;2023-02-26T07:16:27;-2.60;99.90
25320;DHT22;13256;49.012;8.610;2023-02-26T07:19:03;-2.50;99.90
25320;DHT22;13256;49.012;8.610;2023-02-26T07:21:37;-2.50;99.90
25320;DHT22;13256;49.012;8.610;2023-02-26T07:24:07;-2.40;99.90
25320;DHT22;13256;49.012;8.610;2023-02-26T07:26:35;-2.30;99.90
25320;DHT22;13256;49.012;8.610;2023-02-26T07:29:03;-2.20;99.90
25320;DHT22;13256;49.012;8.610;2023-02-26T07:31:32;-2.10;99.90
25320;DHT22;13256;49.012;8.610;2023-02-26T07:33:59;-2.00;99.90
25320;DHT22;13256;49.012;8.610;2023-02-26T07:36:29;-1.90;99.90
25320;DHT22;13256;49.012;8.610;2023-02-26T07:38:58;-1.70;99.90
25320;DHT22;13256;49.012;8.610;2023-02-26T07:41:31;-1.60;99.90
25320;DHT22;13256;49.012;8.610;2023-02-26T07:43:58;-1.40;99.90
25320;DHT22;13256;49.012;8.610;2023-02-26T07:46:26;-1.30;99.90
25320;DHT22;13256;49.012;8.610;2023-02-26T07:48:56;-1.10;99.90
25320;DHT22;13256;49.012;8.610;2023-02-26T07:51:23;-1.00;99.90
25320;DHT22;13256;49.012;8.610;2023-02-26T07:54:00;-0.90;99.90
25320;DHT22;13256;49.012;8.610;2023-02-26T07:56:28;-0.90;99.90
25320;DHT22;13256;49.012;8.610;2023-02-26T07:58:57;-0.80;99.90
25320;DHT22;13256;49.012;8.610;2023-02-26T08:01:25;-0.70;99.90
25320;DHT22;13256;49.012;8.610;2023-02-26T08:03:52;-0.60;99.90
25320;DHT22;13256;49.012;8.610;2023-02-26T08:06:22;-0.50;99.90
25320;DHT22;13256;49.012;8.610;2023-02-26T08:08:51;-0.50;99.90
25320;DHT22;13256;49.012;8.610;2023-02-26T08:11:21;-0.50;99.90
25320;DHT22;13256;49.012;8.610;2023-02-26T08:13:57;-0.40;99.90
25320;DHT22;13256;49.012;8.610;2023-02-26T08:19:35;-0.20;99.90
25320;DHT22;13256;49.012;8.610;2023-02-26T08:22:06;-0.10;99.90
25320;DHT22;13256;49.012;8.610;2023-02-26T08:24:36;0.00;99.90
25320;DHT22;13256;49.012;8.610;2023-02-26T08:27:03;0.10;99.90
25320;DHT22;13256;49.012;8.610;2023-02-26T08:29:31;0.20;99.90
25320;DHT22;13256;49.012;8.610;2023-02-26T08:31:58;0.20;99.90
25320;DHT22;13256;49.012;8.610;2023-02-26T08:34:32;0.30;99.90
25320;DHT22;13256;49.012;8.610;2023-02-26T08:37:03;0.40;99.90
25320;DHT22;13256;49.012;8.610;2023-02-26T08:39:30;0.50;99.90
25320;DHT22;13256;49.012;8.610;2023-02-26T08:42:02;0.60;99.90
25320;DHT22;13256;49.012;8.610;2023-02-26T08:44:31;0.80;99.90
25320;DHT22;13256;49.012;8.610;2023-02-26T08:47:18;1.00;99.90
25320;DHT22;13256;49.012;8.610;2023-02-26T08:49:59;1.20;99.90
25320;DHT22;13256;49.012;8.610;2023-02-26T08:52:39;1.30;99.90
25320;DHT22;13256;49.012;8.610;2023-02-26T08:55:07;1.40;99.90
25320;DHT22;13256;49.012;8.610;2023-02-26T09:00:30;1.50;99.90
25320;DHT22;13256;49.012;8.610;2023-02-26T09:02:57;1.50;99.90
25320;DHT22;13256;49.012;8.610;2023-02-26T09:05:24;1.40;99.90
25320;DHT22;13256;49.012;8.610;2023-02-26T09:07:56;1.30;99.90
25320;DHT22;13256;49.012;8.610;2023-02-26T09:10:25;1.30;99.90
25320;DHT22;13256;49.012;8.610;2023-02-26T09:12:54;1.30;99.90
25320;DHT22;13256;49.012;8.610;2023-02-26T09:15:22;1.20;99.90
25320;DHT22;13256;49.012;8.610;2023-02-26T09:17:58;1.40;99.90
25320;DHT22;13256;49.012;8.610;2023-02-26T09:20:34;1.70;99.90
25320;DHT22;13256;49.012;8.610;2023-02-26T09:23:03;2.00;99.90
25320;DHT22;13256;49.012;8.610;2023-02-26T09:25:37;2.30;99.90
25320;DHT22;13256;49.012;8.610;2023-02-26T09:28:08;2.30;99.90
25320;DHT22;13256;49.012;8.610;2023-02-26T13:13:37;3.30;99.90
25320;DHT22;13256;49.012;8.610;2023-02-26T13:27:58;3.70;99.90
25320;DHT22;13256;49.012;8.610;2023-02-26T13:54:52;3.60;99.90
25320;DHT22;13256;49.012;8.610;2023-02-26T13:57:47;3.60;99.90
25320;DHT22;13256;49.012;8.610;2023-02-26T14:05:52;3.50;99.90
25320;DHT22;13256;49.012;8.610;2023-02-26T14:08:50;3.50;99.90
25320;DHT22;13256;49.012;8.610;2023-02-26T14:16:47;3.60;99.90
25320;DHT22;13256;49.012;8.610;2023-02-26T14:19:27;3.60;99.90
25320;DHT22;13256;49.012;8.610;2023-02-26T14:24:35;3.80;99.90
25320;DHT22;13256;49.012;8.610;2023-02-26T14:36:40;3.80;99.90
25320;DHT22;13256;49.012;8.610;2023-02-26T14:39:30;3.80;99.90
25320;DHT22;13256;49.012;8.610;2023-02-26T14:42:06;3.80;99.90
25320;DHT22;13256;49.012;8.610;2023-02-26T14:44:39;3.80;99.90
25320;DHT22;13256;49.012;8.610;2023-02-26T14:47:15;3.80;99.90
25320;DHT22;13256;49.012;8.610;2023-02-26T14:49:52;3.80;99.90
25320;DHT22;13256;49.012;8.610;2023-02-26T14:53:12;3.70;99.90
25320;DHT22;13256;49.012;8.610;2023-02-26T14:56:00;3.80;99.90
25320;DHT22;13256;49.012;8.610;2023-02-26T15:02:20;3.70;99.90
25320;DHT22;13256;49.012;8.610;2023-02-26T15:05:28;3.70;99.90
25320;DHT22;13256;49.012;8.610;2023-02-26T15:08:24;3.70;99.90
25320;DHT22;13256;49.012;8.610;2023-02-26T15:16:44;3.70;99.90
25320;DHT22;13256;49.012;8.610;2023-02-26T15:25:34;3.60;99.90
25320;DHT22;13256;49.012;8.610;2023-02-26T15:28:05;3.50;99.90
25320;DHT22;13256;49.012;8.610;2023-02-26T15:30:41;3.50;99.90
25320;DHT22;13256;49.012;8.610;2023-02-26T15:33:13;3.40;99.90
25320;DHT22;13256;49.012;8.610;2023-02-26T15:35:43;3.30;99.90
25320;DHT22;13256;49.012;8.610;2023-02-26T15:38:21;3.30;99.90
25320;DHT22;13256;49.012;8.610;2023-02-26T15:40:51;3.30;99.90
25320;DHT22;13256;49.012;8.610;2023-02-26T15:43:23;3.30;99.90
25320;DHT22;13256;49.012;8.610;2023-02-26T15:46:07;3.40;99.90
25320;DHT22;13256;49.012;8.610;2023-02-26T15:48:38;3.30;99.90
25320;DHT22;13256;49.012;8.610;2023-02-26T15:51:11;3.30;99.90
25320;DHT22;13256;49.012;8.610;2023-02-26T15:53:42;3.30;99.90
25320;DHT22;13256;49.012;8.610;2023-02-26T15:56:21;3.30;99.90
25320;DHT22;13256;49.012;8.610;2023-02-26T15:59:28;3.30;99.90
25320;DHT22;13256;49.012;8.610;2023-02-26T16:02:03;3.30;99.90
25320;DHT22;13256;49.012;8.610;2023-02-26T16:04:34;3.30;99.90
25320;DHT22;13256;49.012;8.610;2023-02-26T16:07:02;3.30;99.90
25320;DHT22;13256;49.012;8.610;2023-02-26T16:09:38;3.20;99.90
25320;DHT22;13256;49.012;8.610;2023-02-26T16:12:09;3.20;99.90
25320;DHT22;13256;49.012;8.610;2023-02-26T16:14:43;3.20;99.90
25320;DHT22;13256;49.012;8.610;2023-02-26T16:17:18;3.10;99.90
25320;DHT22;13256;49.012;8.610;2023-02-26T16:20:01;3.10;99.90
25320;DHT22;13256;49.012;8.610;2023-02-26T16:22:53;3.10;99.90
25320;DHT22;13256;49.012;8.610;2023-02-26T16:28:27;3.00;99.90
25320;DHT22;13256;49.012;8.610;2023-02-26T16:30:57;3.00;99.90
25320;DHT22;13256;49.012;8.610;2023-02-26T16:33:59;2.90;99.90
25320;DHT22;13256;49.012;8.610;2023-02-26T16:36:53;2.90;99.90
25320;DHT22;13256;49.012;8.610;2023-02-26T16:39:24;2.90;99.90
25320;DHT22;13256;49.012;8.610;2023-02-26T16:48:11;2.80;99.90
25320;DHT22;13256;49.012;8.610;2023-02-26T16:50:42;2.80;99.90
25320;DHT22;13256;49.012;8.610;2023-02-26T16:53:18;2.80;99.90
25320;DHT22;13256;49.012;8.610;2023-02-26T16:55:57;2.70;99.90
25320;DHT22;13256;49.012;8.610;2023-02-26T16:58:25;2.70;99.90
25320;DHT22;13256;49.012;8.610;2023-02-26T17:01:02;2.70;99.90
25320;DHT22;13256;49.012;8.610;2023-02-26T17:03:44;2.70;99.90
25320;DHT22;13256;49.012;8.610;2023-02-26T17:06:13;2.60;99.90
25320;DHT22;13256;49.012;8.610;2023-02-26T17:11:26;2.60;99.90
25320;DHT22;13256;49.012;8.610;2023-02-26T17:14:19;2.50;99.90
25320;DHT22;13256;49.012;8.610;2023-02-26T17:16:49;2.50;99.90
25320;DHT22;13256;49.012;8.610;2023-02-26T17:19:22;2.50;99.90
25320;DHT22;13256;49.012;8.610;2023-02-26T17:21:55;2.50;99.90
25320;DHT22;13256;49.012;8.610;2023-02-26T17:24:35;2.50;99.90
25320;DHT22;13256;49.012;8.610;2023-02-26T17:29:42;2.50;99.90
25320;DHT22;13256;49.012;8.610;2023-02-26T17:32:29;2.50;99.90
25320;DHT22;13256;49.012;8.610;2023-02-26T17:35:01;2.40;99.90
25320;DHT22;13256;49.012;8.610;2023-02-26T17:37:35;2.40;99.90
25320;DHT22;13256;49.012;8.610;2023-02-26T17:40:19;2.40;99.90
25320;DHT22;13256;49.012;8.610;2023-02-26T17:42:52;2.40;99.90
25320;DHT22;13256;49.012;8.610;2023-02-26T17:45:23;2.40;99.90
25320;DHT22;13256;49.012;8.610;2023-02-26T17:47:59;2.40;99.90
25320;DHT22;13256;49.012;8.610;2023-02-26T17:53:27;2.40;99.90
25320;DHT22;13256;49.012;8.610;2023-02-26T17:55:54;2.30;99.90
25320;DHT22;13256;49.012;8.610;2023-02-26T17:58:27;2.30;99.90
25320;DHT22;13256;49.012;8.610;2023-02-26T18:01:02;2.20;99.90
25320;DHT22;13256;49.012;8.610;2023-02-26T18:03:31;2.20;99.90
25320;DHT22;13256;49.012;8.610;2023-02-26T18:05:58;2.10;99.90
25320;DHT22;13256;49.012;8.610;2023-02-26T18:08:32;2.10;99.90
25320;DHT22;13256;49.012;8.610;2023-02-26T18:11:03;2.10;99.90
25320;DHT22;13256;49.012;8.610;2023-02-26T18:13:40;2.10;99.90
25320;DHT22;13256;49.012;8.610;2023-02-26T18:16:16;2.10;99.90
25320;DHT22;13256;49.012;8.610;2023-02-26T18:18:46;2.00;99.90
25320;DHT22;13256;49.012;8.610;2023-02-26T18:21:19;2.00;99.90
25320;DHT22;13256;49.012;8.610;2023-02-26T18:23:46;2.00;99.90
25320;DHT22;13256;49.012;8.610;2023-02-26T18:26:24;2.00;99.90
25320;DHT22;13256;49.012;8.610;2023-02-26T18:28:59;1.90;99.90
25320;DHT22;13256;49.012;8.610;2023-02-26T18:31:28;1.90;99.90
25320;DHT22;13256;49.012;8.610;2023-02-26T18:34:02;1.80;99.90
25320;DHT22;13256;49.012;8.610;2023-02-26T18:36:56;1.80;99.90
25320;DHT22;13256;49.012;8.610;2023-02-26T18:39:31;1.80;99.90
25320;DHT22;13256;49.012;8.610;2023-02-26T18:45:12;1.70;99.90
25320;DHT22;13256;49.012;8.610;2023-02-26T18:47:41;1.70;99.90
25320;DHT22;13256;49.012;8.610;2023-02-26T18:50:14;1.70;99.90
25320;DHT22;13256;49.012;8.610;2023-02-26T18:52:49;1.60;99.90
25320;DHT22;13256;49.012;8.610;2023-02-26T18:55:17;1.60;99.90
25320;DHT22;13256;49.012;8.610;2023-02-26T19:00:52;1.60;99.90
25320;DHT22;13256;49.012;8.610;2023-02-26T19:03:23;1.60;99.90
25320;DHT22;13256;49.012;8.610;2023-02-26T19:08:55;1.50;99.90
25320;DHT22;13256;49.012;8.610;2023-02-26T19:11:24;1.50;99.90
25320;DHT22;13256;49.012;8.610;2023-02-26T19:13:53;1.50;99.90
25320;DHT22;13256;49.012;8.610;2023-02-26T19:16:26;1.50;99.90
25320;DHT22;13256;49.012;8.610;2023-02-26T19:22:10;1.40;99.90
25320;DHT22;13256;49.012;8.610;2023-02-26T19:24:43;1.40;99.90
25320;DHT22;13256;49.012;8.610;2023-02-26T19:27:12;1.30;99.90
25320;DHT22;13256;49.012;8.610;2023-02-26T19:29:41;1.30;99.90
25320;DHT22;13256;49.012;8.610;2023-02-26T19:32:15;1.30;99.90
25320;DHT22;13256;49.012;8.610;2023-02-26T19:34:55;1.20;99.90
25320;DHT22;13256;49.012;8.610;2023-02-26T19:37:30;1.20;99.90
25320;DHT22;13256;49.012;8.610;2023-02-26T19:42:58;1.20;99.90
25320;DHT22;13256;49.012;8.610;2023-02-26T19:48:29;1.10;99.90
25320;DHT22;13256;49.012;8.610;2023-02-26T19:50:57;1.10;99.90
25320;DHT22;13256;49.012;8.610;2023-02-26T19:53:30;1.10;99.90
25320;DHT22;13256;49.012;8.610;2023-02-26T19:56:08;1.00;99.90
25320;DHT22;13256;49.012;8.610;2023-02-26T19:59:04;1.00;99.90
25320;DHT22;13256;49.012;8.610;2023-02-26T20:04:05;1.00;99.90
25320;DHT22;13256;49.012;8.610;2023-02-26T20:06:32;0.90;99.90
25320;DHT22;13256;49.012;8.610;2023-02-26T20:09:16;0.90;99.90
25320;DHT22;13256;49.012;8.610;2023-02-26T20:11:57;0.90;99.90
25320;DHT22;13256;49.012;8.610;2023-02-26T20:14:38;0.90;99.90
25320;DHT22;13256;49.012;8.610;2023-02-26T20:17:12;0.80;99.90
25320;DHT22;13256;49.012;8.610;2023-02-26T20:20:04;0.80;99.90
25320;DHT22;13256;49.012;8.610;2023-02-26T20:22:33;0.80;99.90
25320;DHT22;13256;49.012;8.610;2023-02-26T20:25:07;0.80;99.90
25320;DHT22;13256;49.012;8.610;2023-02-26T20:27:52;0.70;99.90
25320;DHT22;13256;49.012;8.610;2023-02-26T20:30:23;0.70;99.90
25320;DHT22;13256;49.012;8.610;2023-02-26T20:32:51;0.70;99.90
25320;DHT22;13256;49.012;8.610;2023-02-26T20:38:19;0.70;99.90
25320;DHT22;13256;49.012;8.610;2023-02-26T20:40:53;0.70;99.90
25320;DHT22;13256;49.012;8.610;2023-02-26T20:43:28;0.60;99.90
25320;DHT22;13256;49.012;8.610;2023-02-26T20:46:08;0.60;99.90
25320;DHT22;13256;49.012;8.610;2023-02-26T20:48:42;0.60;99.90
25320;DHT22;13256;49.012;8.610;2023-02-26T20:51:14;0.60;99.90
25320;DHT22;13256;49.012;8.610;2023-02-26T20:53:47;0.50;99.90
25320;DHT22;13256;49.012;8.610;2023-02-26T20:56:17;0.50;99.90
25320;DHT22;13256;49.012;8.610;2023-02-26T20:58:53;0.50;99.90
25320;DHT22;13256;49.012;8.610;2023-02-26T21:01:22;0.50;99.90
25320;DHT22;13256;49.012;8.610;2023-02-26T21:03:50;0.50;99.90
25320;DHT22;13256;49.012;8.610;2023-02-26T21:06:21;0.50;99.90
25320;DHT22;13256;49.012;8.610;2023-02-26T21:17:25;0.40;99.90
25320;DHT22;13256;49.012;8.610;2023-02-26T21:19:53;0.40;99.90
25320;DHT22;13256;49.012;8.610;2023-02-26T21:22:25;0.30;99.90
25320;DHT22;13256;49.012;8.610;2023-02-26T21:24:53;0.40;99.90
25320;DHT22;13256;49.012;8.610;2023-02-26T21:27:25;0.30;99.90
25320;DHT22;13256;49.012;8.610;2023-02-26T21:29:55;0.30;99.90
25320;DHT22;13256;49.012;8.610;2023-02-26T21:35:38;0.30;99.90
25320;DHT22;13256;49.012;8.610;2023-02-26T21:40:56;0.20;99.90
25320;DHT22;13256;49.012;8.610;2023-02-26T21:43:24;0.20;99.90
25320;DHT22;13256;49.012;8.610;2023-02-26T21:46:02;0.10;99.90
25320;DHT22;13256;49.012;8.610;2023-02-26T21:51:33;0.10;99.90
25320;DHT22;13256;49.012;8.610;2023-02-26T21:54:06;0.10;99.90
25320;DHT22;13256;49.012;8.610;2023-02-26T21:56:42;0.10;99.90
25320;DHT22;13256;49.012;8.610;2023-02-26T21:59:11;0.10;99.90
25320;DHT22;13256;49.012;8.610;2023-02-26T22:04:32;0.10;99.90
25320;DHT22;13256;49.012;8.610;2023-02-26T22:07:08;0.00;99.90
25320;DHT22;13256;49.012;8.610;2023-02-26T22:10:10;0.10;99.90
25320;DHT22;13256;49.012;8.610;2023-02-26T22:12:42;0.10;99.90
25320;DHT22;13256;49.012;8.610;2023-02-26T22:15:24;0.00;99.90
25320;DHT22;13256;49.012;8.610;2023-02-26T22:18:00;0.00;99.90
25320;DHT22;13256;49.012;8.610;2023-02-26T22:23:28;0.00;99.90
25320;DHT22;13256;49.012;8.610;2023-02-26T22:26:23;0.00;99.90
25320;DHT22;13256;49.012;8.610;2023-02-26T22:31:31;0.00;99.90
25320;DHT22;13256;49.012;8.610;2023-02-26T22:34:02;0.00;99.90
25320;DHT22;13256;49.012;8.610;2023-02-26T22:36:34;-0.10;99.90
25320;DHT22;13256;49.012;8.610;2023-02-26T22:39:03;0.00;99.90
25320;DHT22;13256;49.012;8.610;2023-02-26T22:44:29;0.00;99.90
25320;DHT22;13256;49.012;8.610;2023-02-26T22:47:02;-0.10;99.90
25320;DHT22;13256;49.012;8.610;2023-02-26T22:49:33;-0.10;99.90
25320;DHT22;13256;49.012;8.610;2023-02-26T22:52:09;-0.10;99.90
25320;DHT22;13256;49.012;8.610;2023-02-26T23:00:36;-0.20;99.90
25320;DHT22;13256;49.012;8.610;2023-02-26T23:03:10;-0.20;99.90
25320;DHT22;13256;49.012;8.610;2023-02-26T23:06:10;-0.20;99.90
25320;DHT22;13256;49.012;8.610;2023-02-26T23:11:19;-0.30;99.90
25320;DHT22;13256;49.012;8.610;2023-02-26T23:13:47;-0.30;99.90
25320;DHT22;13256;49.012;8.610;2023-02-26T23:16:14;-0.30;99.90
25320;DHT22;13256;49.012;8.610;2023-02-26T23:18:48;-0.30;99.90
25320;DHT22;13256;49.012;8.610;2023-02-26T23:22:03;-0.30;99.90
25320;DHT22;13256;49.012;8.610;2023-02-26T23:24:30;-0.30;99.90
25320;DHT22;13256;49.012;8.610;2023-02-26T23:27:03;-0.30;99.90
25320;DHT22;13256;49.012;8.610;2023-02-26T23:29:30;-0.30;99.90
25320;DHT22;13256;49.012;8.610;2023-02-26T23:32:03;-0.30;99.90
25320;DHT22;13256;49.012;8.610;2023-02-26T23:34:31;-0.40;99.90
25320;DHT22;13256;49.012;8.610;2023-02-26T23:36:58;-0.40;99.90
25320;DHT22;13256;49.012;8.610;2023-02-26T23:39:31;-0.40;99.90
25320;DHT22;13256;49.012;8.610;2023-02-26T23:42:03;-0.40;99.90
25320;DHT22;13256;49.012;8.610;2023-02-26T23:44:33;-0.40;99.90
25320;DHT22;13256;49.012;8.610;2023-02-26T23:47:09;-0.40;99.90
25320;DHT22;13256;49.012;8.610;2023-02-26T23:49:36;-0.40;99.90
25320;DHT22;13256;49.012;8.610;2023-02-26T23:52:05;-0.40;99.90
25320;DHT22;13256;49.012;8.610;2023-02-26T23:54:32;-0.40;99.90
25320;DHT22;13256;49.012;8.610;2023-02-26T23:56:59;-0.40;99.90